Gillette, WY (82716)

3:12 PM MDT on July 28, 2016 (GMT -0600)
Gillette-Campbell County | | Change Station

Elev 4364 ft 44.34 °N, 105.54 °W | Updated 19 minutes ago

Mostly Cloudy
Mostly Cloudy
74 °F
Feels Like 74 °F
N
4
Wind Variable Wind from Variable

Today
High -- | Low -- °F
--% Chance of Precip.
Yesterday
High -- | Low -- °F
Precip. -- in
Pressure 30.07 in
Visibility 10.0 miles
Clouds Scattered Clouds 4000 ft
Mostly Cloudy 5500 ft
Dew Point 56 °F
Humidity 53%
Rainfall 0.30 in
Snow Depth Not available.
5:45 AM 8:32 PM
Waning Crescent, 29% visible
METAR KGCC 282053Z AUTO VRB03KT 10SM SCT040 BKN055 23/13 A3019 RMK AO2 SLP183 T02330133 56013
Pressure 30.07 in
Visibility 10.0 miles
Clouds Scattered Clouds 4000 ft
Mostly Cloudy 5500 ft
Dew Point 56 °F
Humidity 53%
Rainfall 0.30 in
Snow Depth Not available.
5:45 AM 8:32 PM
Waning Crescent, 29% visible
METAR KGCC 282053Z AUTO VRB03KT 10SM SCT040 BKN055 23/13 A3019 RMK AO2 SLP183 T02330133 56013

10-Day Weather Forecast

Almanac

Astronomy

Jul. 28, 2016 Rise Set
Actual Time
Civil Twilight
Nautical Twilight
Astronomical Twilight
Moon
Length of Visible Light
Length of Day
Tomorrow will be .
, % of the Moon is Illuminated

Today's Extremes

State Highs State Lows

Community

WunderPhotos

Upload Photos

1,928,224 photos uploaded!

WunderBlog® & News

Nearby

Air Quality

  Air Quality AQ Index Pollutant
Not available.

Snow Depth

Station Depth Elevation

Earthquake Activity

City Distance Mag. Time & Date
Minimum magnitude displayed is 2.5.

Coastal Water Temperatures

Place Temperature

Stations

Nearby Weather Stations

Station Location Temp. Windchill Dew Point Humidity Wind Precip. Elev Updated Type
                   

Watches & Warnings

There are currently no watches in effect.